Time;durP1;ratioP1;P1;durP2;ratioP2;P2;SDS_P1;SDS_P2;PMS_P1;PMS_P2;Temp;Humidity;BMP_temperature;BMP_pressure;BME280_temperature;BME280_humidity;BME280_pressure;Samples;Min_cycle;Max_cycle;Signal;HPM_P1;HPM_P2
2023/01/16 00:01:57;;;;;;;5.32;1.33;;;31.10;68.40;;;;;;5071768;28;20020;-62
2023/01/16 00:04:24;;;;;;;7.05;0.50;;;30.70;67.00;;;;;;5070340;28;20020;-62
2023/01/16 00:06:52;;;;;;;4.65;0.60;;;30.50;67.30;;;;;;5068871;28;20055;-63
2023/01/16 00:09:20;;;;;;;2.67;0.70;;;30.60;67.60;;;;;;5070044;28;20118;-63
2023/01/16 00:11:48;;;;;;;4.47;0.80;;;31.00;65.20;;;;;;5067106;28;20020;-64
2023/01/16 00:14:15;;;;;;;2.05;0.65;;;31.40;63.90;;;;;;5069360;28;20516;-64
2023/01/16 00:16:42;;;;;;;2.40;0.45;;;31.90;62.20;;;;;;5069743;28;20024;-64
2023/01/16 00:19:10;;;;;;;2.28;0.50;;;32.40;62.00;;;;;;5068926;28;20107;-64
2023/01/16 00:21:37;;;;;;;2.53;0.75;;;32.50;59.50;;;;;;5063042;28;20056;-64
2023/01/16 00:24:06;;;;;;;6.72;0.68;;;32.80;58.60;;;;;;5066377;28;20113;-63
2023/01/16 00:26:33;;;;;;;2.35;0.50;;;32.10;59.00;;;;;;5064561;28;20025;-62
2023/01/16 00:29:02;;;;;;;3.15;0.65;;;31.70;60.00;;;;;;5065852;28;20029;-62
2023/01/16 00:31:30;;;;;;;3.13;0.98;;;31.20;60.70;;;;;;5067415;28;20017;-63
2023/01/16 00:33:57;;;;;;;2.92;0.60;;;30.80;62.00;;;;;;5067917;28;20040;-63
2023/01/16 00:36:24;;;;;;;3.30;0.30;;;30.60;62.10;;;;;;5067614;28;20017;-62
2023/01/16 00:38:51;;;;;;;2.20;0.88;;;30.80;59.60;;;;;;5069063;28;20477;-62
2023/01/16 00:41:19;;;;;;;3.58;0.43;;;31.50;59.70;;;;;;5068056;28;20511;-62
2023/01/16 00:43:46;;;;;;;0.98;0.40;;;31.60;58.10;;;;;;5067761;28;20355;-62
2023/01/16 00:46:13;;;;;;;1.42;0.45;;;31.50;58.00;;;;;;5065064;28;20496;-62
2023/01/16 00:48:41;;;;;;;1.70;0.70;;;31.40;59.20;;;;;;5067902;28;20050;-62
2023/01/16 00:51:08;;;;;;;3.50;0.68;;;32.20;59.00;;;;;;5067768;28;20105;-62
2023/01/16 00:53:35;;;;;;;3.00;0.47;;;33.20;57.00;;;;;;5057604;28;20603;-63
2023/01/16 00:56:03;;;;;;;3.22;0.60;;;33.90;54.40;;;;;;5065688;28;20043;-62
2023/01/16 00:58:31;;;;;;;2.38;0.70;;;34.40;55.40;;;;;;5069992;28;20379;-63
2023/01/16 01:00:59;;;;;;;2.22;0.65;;;34.00;54.00;;;;;;5073231;28;20031;-63
2023/01/16 01:03:28;;;;;;;2.30;0.52;;;34.10;56.70;;;;;;5073328;28;20024;-66
2023/01/16 01:05:55;;;;;;;1.33;0.55;;;34.20;53.40;;;;;;5072154;28;20016;-63
2023/01/16 01:08:23;;;;;;;2.78;0.80;;;33.50;53.70;;;;;;5066078;28;20051;-62
2023/01/16 01:10:50;;;;;;;2.55;0.50;;;32.90;54.80;;;;;;5068276;28;20552;-63
2023/01/16 01:13:18;;;;;;;1.70;0.50;;;31.90;56.10;;;;;;5085689;28;20043;-63
2023/01/16 01:15:45;;;;;;;3.25;0.50;;;31.40;57.50;;;;;;5068818;28;20027;-65
2023/01/16 01:18:12;;;;;;;5.50;0.55;;;30.70;59.70;;;;;;5082001;28;20112;-63
2023/01/16 01:20:40;;;;;;;5.05;0.85;;;30.00;61.80;;;;;;5086147;28;20103;-63
2023/01/16 01:23:07;;;;;;;2.35;0.50;;;30.00;63.70;;;;;;5070503;28;20489;-62
2023/01/16 01:25:38;;;;;;;4.10;1.02;;;29.90;62.90;;;;;;5079815;28;20101;-62
2023/01/16 01:28:05;;;;;;;4.55;0.77;;;29.80;63.20;;;;;;5072929;28;20031;-62
2023/01/16 01:30:32;;;;;;;4.20;0.98;;;29.80;62.60;;;;;;5069301;28;20032;-62
2023/01/16 01:33:00;;;;;;;3.83;0.60;;;29.70;62.60;;;;;;5085665;28;20032;-62
2023/01/16 01:35:27;;;;;;;2.08;0.60;;;30.20;62.90;;;;;;5075319;28;20027;-64
2023/01/16 01:37:54;;;;;;;4.43;0.63;;;31.00;63.80;;;;;;5075937;28;20016;-63
2023/01/16 01:40:22;;;;;;;4.45;0.60;;;31.40;60.70;;;;;;5071214;28;20075;-62
2023/01/16 01:42:52;;;;;;;1.98;0.60;;;30.80;61.00;;;;;;5069899;28;20038;-62
2023/01/16 01:45:25;;;;;;;2.08;0.60;;;30.30;63.90;;;;;;5067378;28;20037;-62
2023/01/16 01:48:23;;;;;;;2.45;0.40;;;29.70;63.00;;;;;;5078874;28;20489;-62
2023/01/16 01:51:08;;;;;;;3.33;0.70;;;29.60;64.40;;;;;;5066947;28;20032;-62
2023/01/16 01:54:09;;;;;;;2.75;0.77;;;29.60;65.00;;;;;;5068907;28;20078;-62
2023/01/16 01:56:55;;;;;;;6.05;0.60;;;29.70;63.70;;;;;;5055539;28;20409;-64
2023/01/16 01:59:29;;;;;;;6.47;0.88;;;29.60;65.20;;;;;;5071052;28;20024;-66
2023/01/16 02:01:56;;;;;;;;;;;29.40;67.90;;;;;;5068477;28;20393;-62
2023/01/16 02:04:31;;;;;;;3.30;0.93;;;29.10;69.20;;;;;;5068027;28;19912;-63
2023/01/16 02:07:02;;;;;;;3.67;1.10;;;29.10;70.20;;;;;;5059490;28;20021;-63
2023/01/16 02:09:30;;;;;;;1.48;0.65;;;28.80;69.80;;;;;;5067246;28;20142;-63
2023/01/16 02:12:23;;;;;;;1.58;0.32;;;29.10;72.70;;;;;;5079157;28;20040;-63
2023/01/16 02:14:51;;;;;;;5.28;0.70;;;29.70;72.00;;;;;;5065749;28;20048;-64
2023/01/16 02:20:20;;;;;;;5.72;0.73;;;30.00;69.80;;;;;;5070977;28;20086;-63
2023/01/16 02:22:57;;;;;;;5.05;0.63;;;30.30;70.10;;;;;;5079247;28;20443;-65
2023/01/16 02:25:30;;;;;;;3.45;0.60;;;31.10;69.60;;;;;;5079360;28;20020;-63
2023/01/16 02:28:24;;;;;;;2.92;0.50;;;31.70;66.20;;;;;;5069884;28;20028;-64
2023/01/16 02:31:03;;;;;;;3.13;0.70;;;31.40;65.70;;;;;;5069679;28;20127;-63
2023/01/16 02:33:45;;;;;;;5.32;0.68;;;30.70;66.50;;;;;;5066791;28;20036;-62
2023/01/16 02:36:36;;;;;;;1.25;0.40;;;30.70;68.90;;;;;;5068185;28;20025;-62
2023/01/16 02:39:07;;;;;;;3.92;0.65;;;30.80;67.50;;;;;;5068049;28;20039;-62
2023/01/16 02:42:11;;;;;;;2.70;0.60;;;30.90;65.20;;;;;;5068615;28;20027;-64
2023/01/16 02:44:57;;;;;;;1.55;0.50;;;30.60;67.50;;;;;;5067784;28;20597;-62
2023/01/16 02:47:45;;;;;;;3.20;0.70;;;30.00;69.70;;;;;;5062526;28;20492;-61
2023/01/16 02:50:12;;;;;;;2.92;0.60;;;29.80;71.40;;;;;;5069405;28;20029;-64
2023/01/16 02:52:54;;;;;;;3.80;0.98;;;30.20;71.40;;;;;;5077277;28;20040;-62
2023/01/16 02:55:33;;;;;;;5.72;0.60;;;30.60;70.20;;;;;;5064450;28;20113;-62
2023/01/16 02:58:04;;;;;;;4.20;0.70;;;30.40;69.60;;;;;;5075694;28;20137;-62
2023/01/16 03:00:34;;;;;;;3.15;0.68;;;30.60;71.40;;;;;;5068526;28;20028;-62
2023/01/16 03:03:02;;;;;;;2.92;0.43;;;30.60;70.50;;;;;;5079407;28;20501;-63
2023/01/16 03:05:42;;;;;;;3.38;0.70;;;30.20;68.30;;;;;;5072916;28;20031;-63
2023/01/16 03:08:09;;;;;;;1.73;0.47;;;29.60;69.50;;;;;;5063325;28;20028;-65
2023/01/16 03:10:49;;;;;;;3.42;0.77;;;29.40;71.60;;;;;;5067951;28;20063;-63
2023/01/16 03:13:22;;;;;;;1.27;0.50;;;29.10;72.70;;;;;;5069477;28;20040;-65
2023/01/16 03:16:02;;;;;;;2.22;0.45;;;28.80;73.00;;;;;;5067561;28;20033;-65
2023/01/16 03:18:44;;;;;;;1.80;1.10;;;29.10;73.30;;;;;;5061445;28;20029;-65
2023/01/16 03:21:25;;;;;;;2.25;0.60;;;29.50;72.20;;;;;;5071615;28;20040;-65
2023/01/16 03:23:54;;;;;;;3.60;0.60;;;30.30;71.70;;;;;;5072554;28;20173;-65
2023/01/16 03:26:30;;;;;;;2.70;0.55;;;30.50;68.10;;;;;;5074698;28;20119;-66
2023/01/16 03:29:08;;;;;;;3.35;0.93;;;30.50;67.00;;;;;;5068913;28;20025;-65
2023/01/16 03:32:07;;;;;;;3.85;0.98;;;31.00;66.70;;;;;;5067844;28;20020;-64
2023/01/16 03:34:46;;;;;;;2.33;0.85;;;31.10;65.60;;;;;;5087374;28;20035;-63
2023/01/16 03:37:19;;;;;;;2.72;0.50;;;31.30;64.00;;;;;;5068556;28;20024;-64
2023/01/16 03:39:58;;;;;;;4.07;0.90;;;31.60;64.00;;;;;;5079201;28;20081;-66
2023/01/16 03:42:48;;;;;;;1.88;0.40;;;31.50;63.90;;;;;;5063384;28;20046;-67
2023/01/16 03:45:48;;;;;;;4.75;0.60;;;31.90;63.80;;;;;;5066320;28;20056;-65
2023/01/16 03:48:47;;;;;;;3.20;0.50;;;31.70;63.40;;;;;;5071260;28;20047;-64
2023/01/16 03:51:26;;;;;;;2.25;0.60;;;31.40;62.80;;;;;;5073099;28;20027;-64
2023/01/16 03:54:24;;;;;;;4.30;0.50;;;31.60;62.70;;;;;;5076920;28;20079;-65
2023/01/16 03:57:04;;;;;;;4.15;0.80;;;31.30;62.60;;;;;;5073225;28;20036;-65
2023/01/16 03:59:31;;;;;;;3.35;0.70;;;30.60;63.90;;;;;;5073642;28;20781;-65
2023/01/16 04:02:09;;;;;;;3.97;0.40;;;30.20;65.10;;;;;;5076353;28;20032;-65
2023/01/16 04:04:49;;;;;;;5.05;1.10;;;30.10;66.40;;;;;;5069057;28;20175;-65
2023/01/16 04:07:39;;;;;;;5.03;0.60;;;30.60;64.50;;;;;;5074321;28;20084;-65
2023/01/16 04:10:28;;;;;;;1.15;0.40;;;30.30;64.40;;;;;;5078671;28;20044;-66
2023/01/16 04:12:59;;;;;;;2.80;0.60;;;30.00;63.70;;;;;;5074669;28;20094;-67
2023/01/16 04:15:30;;;;;;;2.22;0.70;;;29.90;66.70;;;;;;5077463;28;20029;-66
2023/01/16 04:17:59;;;;;;;2.65;0.45;;;29.90;65.40;;;;;;5062309;28;20031;-65
2023/01/16 04:20:29;;;;;;;2.05;0.60;;;29.40;66.70;;;;;;5064514;28;20059;-66
2023/01/16 04:22:56;;;;;;;2.22;0.52;;;29.10;68.40;;;;;;5070178;28;20535;-66
2023/01/16 04:25:24;;;;;;;3.05;0.68;;;29.60;68.80;;;;;;5077454;28;20029;-65
2023/01/16 04:27:51;;;;;;;3.15;0.40;;;30.20;66.70;;;;;;5070131;28;20077;-66
2023/01/16 04:30:19;;;;;;;2.67;0.73;;;30.60;65.10;;;;;;5067562;28;20108;-66
2023/01/16 04:32:46;;;;;;;4.60;0.57;;;30.20;64.70;;;;;;5072847;28;20032;-65
2023/01/16 04:35:14;;;;;;;0.95;0.50;;;29.70;65.10;;;;;;5068680;28;20086;-67
2023/01/16 04:37:41;;;;;;;4.85;0.85;;;29.90;66.20;;;;;;5067323;28;20097;-66
2023/01/16 04:40:09;;;;;;;2.28;0.63;;;30.20;67.10;;;;;;5067212;28;20029;-66
2023/01/16 04:42:36;;;;;;;5.18;0.80;;;30.40;64.20;;;;;;5071898;28;20050;-65
2023/01/16 04:45:05;;;;;;;2.65;0.63;;;30.00;65.30;;;;;;5072649;28;20520;-65
2023/01/16 04:47:32;;;;;;;1.35;0.40;;;29.20;67.60;;;;;;5071021;28;20029;-65
2023/01/16 04:49:59;;;;;;;4.00;0.70;;;28.80;69.00;;;;;;5073555;28;20016;-66
2023/01/16 04:52:27;;;;;;;3.40;0.40;;;28.60;69.90;;;;;;5084289;28;20036;-66
2023/01/16 04:54:54;;;;;;;1.80;0.30;;;28.40;71.40;;;;;;5073905;28;20623;-66
2023/01/16 04:57:21;;;;;;;3.95;0.88;;;28.80;71.40;;;;;;5076371;28;20049;-66
2023/01/16 04:59:49;;;;;;;2.53;0.50;;;29.20;69.90;;;;;;5079010;28;20016;-66
2023/01/16 05:02:16;;;;;;;5.05;0.95;;;29.50;68.70;;;;;;5079706;28;20149;-66
2023/01/16 05:04:43;;;;;;;1.92;0.70;;;29.40;69.00;;;;;;5073093;28;20024;-66
2023/01/16 05:07:11;;;;;;;2.65;0.80;;;29.50;69.80;;;;;;5085896;28;20016;-65
2023/01/16 05:09:38;;;;;;;1.30;0.50;;;29.80;69.10;;;;;;5077905;28;20381;-66
2023/01/16 05:12:06;;;;;;;2.72;0.32;;;29.90;67.60;;;;;;5077915;28;20568;-65
2023/01/16 05:14:33;;;;;;;2.78;0.57;;;29.50;68.40;;;;;;5085223;28;20047;-68
2023/01/16 05:17:00;;;;;;;2.53;0.40;;;29.30;69.00;;;;;;5070156;28;20021;-66
2023/01/16 05:19:28;;;;;;;2.15;0.55;;;29.10;69.40;;;;;;5076074;28;20058;-67
2023/01/16 05:21:55;;;;;;;2.20;0.60;;;29.10;69.80;;;;;;5079435;28;20016;-66
2023/01/16 05:24:22;;;;;;;2.25;0.52;;;29.40;70.30;;;;;;5084091;28;20081;-66
2023/01/16 05:26:50;;;;;;;5.05;0.70;;;29.60;69.60;;;;;;5072517;28;20039;-65
2023/01/16 05:29:17;;;;;;;6.13;0.80;;;29.30;69.00;;;;;;5074386;28;20052;-65
2023/01/16 05:31:44;;;;;;;4.18;0.65;;;28.90;71.10;;;;;;5066277;28;20030;-65
2023/01/16 05:34:12;;;;;;;5.22;0.98;;;28.50;71.80;;;;;;5065137;28;20028;-66
2023/01/16 05:36:39;;;;;;;3.50;0.60;;;28.20;73.10;;;;;;5064762;28;20481;-65
2023/01/16 05:39:06;;;;;;;3.65;0.60;;;28.30;73.50;;;;;;5071220;28;20111;-65
2023/01/16 05:41:34;;;;;;;3.03;0.77;;;28.60;74.00;;;;;;5069415;28;20032;-66
2023/01/16 05:44:01;;;;;;;3.50;0.73;;;28.90;73.60;;;;;;5069325;28;20112;-65
2023/01/16 05:46:29;;;;;;;5.72;1.23;;;29.20;72.30;;;;;;5064595;28;20603;-64
2023/01/16 05:48:56;;;;;;;6.53;1.05;;;29.50;71.90;;;;;;5068194;28;20085;-67
2023/01/16 05:51:23;;;;;;;4.75;1.23;;;29.40;70.30;;;;;;5071001;28;20031;-66
2023/01/16 05:53:54;;;;;;;3.55;0.80;;;29.50;70.80;;;;;;5065907;28;20043;-66
2023/01/16 05:56:22;;;;;;;3.72;0.70;;;29.20;70.20;;;;;;5070045;28;20041;-66
2023/01/16 05:58:50;;;;;;;3.05;0.47;;;28.80;70.60;;;;;;5065247;28;20052;-65
2023/01/16 06:01:17;;;;;;;3.50;0.50;;;28.80;71.90;;;;;;5072215;28;20028;-65
2023/01/16 06:03:44;;;;;;;2.35;0.55;;;28.70;71.20;;;;;;5066643;28;20020;-67
2023/01/16 06:06:12;;;;;;;5.15;0.57;;;28.50;71.70;;;;;;5069902;28;20369;-66
2023/01/16 06:08:39;;;;;;;4.13;1.23;;;28.40;71.90;;;;;;5071234;28;20111;-65
2023/01/16 06:11:06;;;;;;;2.03;0.57;;;28.50;71.60;;;;;;5068808;28;20020;-66
2023/01/16 06:13:34;;;;;;;4.20;0.90;;;28.50;71.60;;;;;;5071101;28;20044;-67
2023/01/16 06:16:01;;;;;;;3.28;0.80;;;28.80;70.90;;;;;;5068167;28;20027;-65
2023/01/16 06:18:28;;;;;;;1.98;1.15;;;28.90;71.40;;;;;;5065696;28;20112;-67
2023/01/16 06:20:56;;;;;;;2.90;0.95;;;29.00;70.00;;;;;;5064985;28;20025;-67
2023/01/16 06:23:23;;;;;;;2.13;0.73;;;29.20;69.70;;;;;;5067415;28;20763;-66
2023/01/16 06:25:50;;;;;;;3.97;0.60;;;28.80;69.40;;;;;;5067195;28;20024;-65
2023/01/16 06:28:18;;;;;;;4.43;0.80;;;28.60;70.90;;;;;;5067636;28;20029;-66
2023/01/16 06:30:50;;;;;;;4.78;0.70;;;28.30;70.10;;;;;;5065362;28;20077;-66
2023/01/16 06:33:17;;;;;;;2.33;0.55;;;28.30;70.70;;;;;;5062493;28;20037;-67
2023/01/16 06:35:44;;;;;;;4.75;0.93;;;28.30;71.30;;;;;;5065944;28;20024;-66
2023/01/16 06:38:11;;;;;;;3.45;0.68;;;28.20;71.90;;;;;;5063377;28;20513;-67
2023/01/16 06:40:39;;;;;;;4.15;0.73;;;28.20;70.90;;;;;;5064684;28;20652;-67
2023/01/16 06:43:06;;;;;;;2.72;0.50;;;27.70;72.30;;;;;;5066248;28;20087;-66
2023/01/16 06:45:34;;;;;;;2.50;0.40;;;27.40;73.60;;;;;;5071468;28;20408;-67
2023/01/16 06:48:01;;;;;;;2.88;0.63;;;27.20;74.70;;;;;;5081197;28;20369;-67
2023/01/16 06:50:29;;;;;;;3.10;0.63;;;27.30;74.80;;;;;;5070983;28;20502;-67
2023/01/16 06:52:56;;;;;;;3.42;0.73;;;27.60;75.20;;;;;;5083954;28;20021;-67
2023/01/16 06:55:23;;;;;;;2.67;0.70;;;27.90;75.20;;;;;;5077952;28;20377;-66
2023/01/16 06:57:51;;;;;;;3.38;0.80;;;28.30;74.70;;;;;;5073539;28;20032;-66
2023/01/16 07:00:18;;;;;;;3.60;0.60;;;28.50;73.50;;;;;;5073575;28;20389;-65
2023/01/16 07:02:56;;;;;;;3.47;0.63;;;28.60;72.50;;;;;;5072949;28;21102;-66
2023/01/16 07:05:26;;;;;;;4.15;0.80;;;28.40;72.60;;;;;;5075172;28;20129;-66
2023/01/16 07:07:53;;;;;;;3.15;0.95;;;28.30;72.70;;;;;;5071498;28;20032;-66
2023/01/16 07:10:21;;;;;;;3.90;0.63;;;28.00;74.50;;;;;;5070049;28;20127;-65
2023/01/16 07:12:53;;;;;;;3.22;1.02;;;27.90;75.80;;;;;;5077100;28;20111;-64
2023/01/16 07:23:54;;;;;;;2.70;0.60;;;27.30;76.50;;;;;;5066880;28;20550;-67
2023/01/16 07:26:22;;;;;;;2.40;0.50;;;27.10;77.60;;;;;;5068045;28;20029;-67
2023/01/16 07:28:51;;;;;;;2.58;0.57;;;27.10;77.30;;;;;;5070448;28;20401;-67
2023/01/16 07:31:18;;;;;;;5.45;0.90;;;27.20;77.30;;;;;;5071569;28;20028;-67
2023/01/16 07:33:46;;;;;;;3.30;0.75;;;27.20;77.90;;;;;;5070727;28;20044;-67
2023/01/16 07:36:13;;;;;;;1.90;0.80;;;27.00;78.80;;;;;;5065568;28;20048;-67
2023/01/16 07:38:40;;;;;;;3.33;0.95;;;27.00;80.50;;;;;;5065152;28;20043;-67
2023/01/16 07:41:08;;;;;;;5.95;0.80;;;26.70;81.90;;;;;;5066347;28;20406;-66
2023/01/16 07:43:35;;;;;;;4.45;0.70;;;26.60;83.80;;;;;;5066887;28;20036;-66
2023/01/16 07:46:03;;;;;;;4.28;0.80;;;26.60;85.00;;;;;;5064677;28;20077;-65
2023/01/16 07:48:30;;;;;;;3.20;0.60;;;26.60;84.20;;;;;;5068581;28;20028;-65
2023/01/16 07:50:59;;;;;;;5.32;0.88;;;26.40;85.70;;;;;;5074524;28;20017;-65
2023/01/16 07:53:29;;;;;;;6.30;1.13;;;26.20;87.80;;;;;;5070465;28;20489;-65
2023/01/16 07:55:59;;;;;;;2.53;0.82;;;26.10;89.60;;;;;;5081172;28;20072;-64
2023/01/16 07:58:28;;;;;;;2.75;0.70;;;26.00;90.60;;;;;;5075456;28;20064;-65
2023/01/16 08:00:56;;;;;;;3.78;0.77;;;26.00;91.20;;;;;;5071853;28;20108;-64
2023/01/16 08:03:25;;;;;;;5.47;1.48;;;25.80;91.80;;;;;;5084817;28;20068;-65
2023/01/16 08:05:57;;;;;;;8.30;0.98;;;25.80;92.70;;;;;;5068646;28;20025;-65
2023/01/16 08:08:28;;;;;;;9.43;0.80;;;25.60;92.50;;;;;;5071384;28;20589;-65
2023/01/16 08:10:57;;;;;;;1.90;0.60;;;25.50;93.20;;;;;;5077527;28;20020;-64
2023/01/16 08:13:25;;;;;;;5.25;1.00;;;25.40;94.50;;;;;;5071277;28;20123;-65
2023/01/16 08:15:53;;;;;;;4.00;1.05;;;25.30;95.30;;;;;;5068955;28;20052;-64
2023/01/16 08:18:20;;;;;;;4.85;1.58;;;25.30;95.80;;;;;;5068450;28;20060;-64
2023/01/16 08:20:48;;;;;;;5.57;0.70;;;25.30;95.90;;;;;;5069311;28;20025;-65
2023/01/16 08:23:15;;;;;;;12.80;1.33;;;25.30;95.70;;;;;;5082876;28;20040;-64
2023/01/16 08:25:42;;;;;;;2.10;0.88;;;25.30;94.80;;;;;;5065126;28;20024;-64
2023/01/16 08:28:10;;;;;;;4.15;1.05;;;25.20;95.10;;;;;;5065457;28;20024;-65
2023/01/16 08:30:37;;;;;;;3.17;1.20;;;25.10;95.30;;;;;;5065471;28;20025;-65
2023/01/16 08:33:05;;;;;;;2.58;0.95;;;25.00;96.00;;;;;;5068910;28;20378;-65
2023/01/16 08:35:32;;;;;;;3.40;0.65;;;24.90;96.80;;;;;;5067014;28;20021;-65
2023/01/16 08:37:59;;;;;;;4.40;1.48;;;24.80;97.60;;;;;;5067975;28;20024;-63
2023/01/16 08:40:28;;;;;;;2.83;0.65;;;24.60;98.20;;;;;;5070104;28;20024;-66
2023/01/16 08:51:23;;;;;;;8.95;1.25;;;24.20;98.60;;;;;;5064311;28;20035;-65
2023/01/16 08:53:57;;;;;;;7.90;1.15;;;24.10;99.60;;;;;;5066747;28;20083;-64
2023/01/16 08:56:24;;;;;;;;;;;24.00;99.90;;;;;;5065621;28;20075;-65
2023/01/16 08:58:51;;;;;;;6.28;1.33;;;23.90;99.90;;;;;;5072447;28;19912;-65
2023/01/16 09:01:19;;;;;;;4.82;1.00;;;23.80;99.90;;;;;;5064955;28;20389;-65
2023/01/16 09:03:47;;;;;;;6.05;0.95;;;23.80;99.90;;;;;;5066557;28;20638;-65
2023/01/16 09:06:15;;;;;;;5.85;1.98;;;23.70;99.90;;;;;;5064432;28;20039;-64
2023/01/16 09:08:42;;;;;;;3.83;0.70;;;23.60;99.90;;;;;;5077449;28;20081;-65
2023/01/16 09:14:00;;;;;;;5.78;1.00;;;23.50;99.90;;;;;;5058064;28;20129;-65
2023/01/16 09:16:27;;;;;;;5.20;0.90;;;23.50;99.90;;;;;;5063356;28;20389;-64
2023/01/16 09:18:54;;;;;;;4.47;0.85;;;23.40;99.90;;;;;;5073730;28;20493;-65
2023/01/16 09:21:24;;;;;;;4.40;0.90;;;23.40;99.90;;;;;;5066975;28;20025;-65
2023/01/16 09:23:53;;;;;;;5.72;1.70;;;23.30;99.90;;;;;;5064319;28;20194;-65
2023/01/16 09:26:21;;;;;;;7.70;1.08;;;23.20;99.90;;;;;;5069510;28;20055;-65
2023/01/16 09:28:48;;;;;;;2.45;0.80;;;23.10;99.90;;;;;;5070624;28;20033;-65
2023/01/16 09:31:18;;;;;;;5.13;0.95;;;23.10;99.90;;;;;;5071961;28;20036;-65
2023/01/16 09:33:48;;;;;;;2.20;0.68;;;23.00;99.90;;;;;;5076902;28;20400;-65
2023/01/16 09:36:16;;;;;;;4.68;1.17;;;22.90;99.90;;;;;;5064429;28;20529;-65
2023/01/16 09:38:43;;;;;;;4.07;0.93;;;22.90;99.90;;;;;;5070821;28;20028;-65
2023/01/16 09:44:05;;;;;;;3.88;0.82;;;22.70;99.90;;;;;;5065083;28;20043;-65
2023/01/16 09:46:39;;;;;;;6.20;0.75;;;22.70;99.90;;;;;;5081316;28;20028;-65
2023/01/16 09:49:46;;;;;;;4.78;0.90;;;22.70;99.90;;;;;;5058003;28;20082;-66
2023/01/16 09:58:36;;;;;;;3.72;0.82;;;22.50;99.90;;;;;;5068917;28;20047;-66
2023/01/16 10:01:15;;;;;;;4.45;0.82;;;22.40;99.90;;;;;;5080878;28;20024;-66
2023/01/16 10:03:42;;;;;;;4.28;0.70;;;22.40;99.90;;;;;;5071290;28;20052;-63
2023/01/16 10:06:28;;;;;;;7.57;0.80;;;22.40;99.90;;;;;;5061678;28;20386;-66
2023/01/16 10:09:07;;;;;;;3.38;0.93;;;22.30;99.90;;;;;;5059726;28;20139;-66
2023/01/16 10:12:03;;;;;;;6.90;1.20;;;22.20;99.90;;;;;;5064556;28;20090;-64
2023/01/16 10:15:06;;;;;;;3.35;1.20;;;22.10;99.90;;;;;;5066979;28;20032;-66
2023/01/16 10:17:42;;;;;;;6.72;1.15;;;22.10;99.90;;;;;;5064717;28;20037;-66
2023/01/16 10:20:25;;;;;;;5.88;1.20;;;22.10;99.90;;;;;;5066218;28;20036;-66
2023/01/16 10:23:12;;;;;;;4.72;0.80;;;22.00;99.90;;;;;;5067091;28;20021;-66
2023/01/16 10:26:19;;;;;;;6.60;1.15;;;22.00;99.90;;;;;;5065003;28;20046;-66
2023/01/16 10:29:23;;;;;;;1.45;0.68;;;22.00;99.90;;;;;;5058540;28;20545;-66
2023/01/16 10:32:11;;;;;;;3.83;0.90;;;21.90;99.90;;;;;;5068744;28;20029;-66
2023/01/16 10:35:03;;;;;;;5.15;0.85;;;21.90;99.90;;;;;;5063622;28;20032;-66
2023/01/16 10:37:31;;;;;;;8.48;1.88;;;21.90;99.90;;;;;;5069330;28;20496;-63
2023/01/16 10:40:01;;;;;;;6.72;1.20;;;21.80;99.90;;;;;;5069204;28;20020;-64
2023/01/16 10:51:03;;;;;;;5.47;1.17;;;21.80;99.90;;;;;;5049420;28;20125;-65
2023/01/16 10:53:34;;;;;;;4.82;1.40;;;21.70;99.90;;;;;;5067407;28;20045;-64
2023/01/16 10:56:03;;;;;;;7.85;1.00;;;21.60;99.90;;;;;;5064905;28;20036;-65
2023/01/16 10:58:40;;;;;;;7.82;1.20;;;21.50;99.90;;;;;;5066520;28;20107;-64
2023/01/16 11:01:15;;;;;;;9.75;1.48;;;21.40;99.90;;;;;;5059674;28;20096;-64
2023/01/16 11:03:46;;;;;;;4.65;0.90;;;21.40;99.90;;;;;;5068848;28;20029;-64
2023/01/16 11:06:19;;;;;;;5.05;1.17;;;21.40;99.90;;;;;;5066749;28;20103;-64
2023/01/16 11:09:16;;;;;;;4.35;1.00;;;21.40;99.90;;;;;;5067368;28;20020;-64
2023/01/16 11:20:34;;;;;;;7.85;1.02;;;21.20;99.90;;;;;;5066192;28;20082;-64
2023/01/16 11:23:04;;;;;;;6.25;1.00;;;21.20;99.90;;;;;;5067692;28;20103;-65
2023/01/16 11:25:33;;;;;;;5.72;1.10;;;21.10;99.90;;;;;;5065203;28;20078;-64
2023/01/16 11:28:06;;;;;;;7.07;1.90;;;21.20;99.90;;;;;;5067743;28;20070;-64
2023/01/16 11:30:38;;;;;;;6.53;1.33;;;21.10;99.90;;;;;;5071294;28;20036;-64
2023/01/16 11:33:12;;;;;;;4.35;0.95;;;21.00;99.90;;;;;;5070928;28;20033;-65
2023/01/16 11:35:39;;;;;;;4.90;1.63;;;20.90;99.90;;;;;;5069430;28;20041;-65
2023/01/16 11:38:07;;;;;;;3.42;0.77;;;20.80;99.90;;;;;;5070955;28;20472;-65
2023/01/16 11:40:45;;;;;;;5.85;1.27;;;20.80;99.90;;;;;;5070862;28;20043;-65
2023/01/16 11:46:27;;;;;;;4.90;1.20;;;20.60;99.90;;;;;;5068153;28;20086;-64
2023/01/16 11:48:58;;;;;;;7.70;1.40;;;20.50;99.90;;;;;;5071751;28;20409;-65
2023/01/16 11:51:30;;;;;;;3.67;0.95;;;20.40;99.90;;;;;;5072114;28;20024;-64
2023/01/16 11:53:59;;;;;;;5.63;1.50;;;20.30;99.90;;;;;;5071954;28;20400;-64
2023/01/16 11:56:58;;;;;;;7.90;1.50;;;20.30;99.90;;;;;;5071542;28;20119;-64
2023/01/16 11:59:37;;;;;;;2.80;0.93;;;20.20;99.90;;;;;;5071912;28;20035;-64
2023/01/16 12:02:19;;;;;;;6.03;1.65;;;20.10;99.90;;;;;;5071493;28;20024;-64
2023/01/16 12:08:25;;;;;;;6.97;1.20;;;20.10;99.90;;;;;;5071774;28;20459;-64
2023/01/16 12:11:11;;;;;;;5.72;1.10;;;20.00;99.90;;;;;;5071746;28;20032;-64
2023/01/16 12:16:38;;;;;;;6.22;1.15;;;19.90;99.90;;;;;;5071131;28;20039;-63
2023/01/16 12:19:53;;;;;;;7.68;2.78;;;19.70;99.90;;;;;;5070892;28;20032;-64
2023/01/16 12:22:23;;;;;;;4.90;1.60;;;19.60;99.90;;;;;;5070366;28;20024;-65
2023/01/16 12:25:17;;;;;;;7.05;1.40;;;19.50;99.90;;;;;;5071499;28;20021;-65
2023/01/16 12:27:59;;;;;;;6.15;1.20;;;19.40;99.90;;;;;;5060160;28;20024;-65
2023/01/16 12:32:03;;;;;;;8.60;1.50;;;19.20;99.90;;;;;;5071339;28;20482;-64
2023/01/16 12:34:14;;;;;;;6.25;1.33;;;19.20;99.90;;;;;;5049609;28;20059;-65
2023/01/16 12:37:02;;;;;;;8.27;1.40;;;19.10;99.90;;;;;;5061124;28;20036;-65
2023/01/16 12:40:05;;;;;;;7.07;1.48;;;19.00;99.90;;;;;;5070013;28;20025;-64
2023/01/16 12:45:52;;;;;;;3.88;1.27;;;18.70;99.90;;;;;;5070130;28;20074;-65
2023/01/16 12:48:31;;;;;;;5.85;1.25;;;18.60;99.90;;;;;;5048566;28;20027;-66
2023/01/16 12:51:04;;;;;;;4.95;2.17;;;18.60;99.90;;;;;;5046323;28;20047;-65
2023/01/16 12:53:54;;;;;;;5.15;1.33;;;18.50;99.90;;;;;;5066707;28;20126;-65
2023/01/16 12:56:57;;;;;;;10.18;1.70;;;18.40;99.90;;;;;;5065394;28;20055;-65
2023/01/16 12:59:35;;;;;;;5.60;1.48;;;18.40;99.90;;;;;;5067513;28;20025;-65
2023/01/16 13:02:20;;;;;;;3.92;1.23;;;18.30;99.90;;;;;;5066775;28;20060;-66
2023/01/16 13:05:17;;;;;;;5.47;1.27;;;18.20;99.90;;;;;;5065804;28;20033;-65
2023/01/16 13:07:55;;;;;;;3.75;1.42;;;18.20;99.90;;;;;;5063847;28;20049;-64
2023/01/16 13:13:33;;;;;;;7.82;1.52;;;18.10;99.90;;;;;;5067053;28;20101;-64
2023/01/16 13:16:04;;;;;;;7.47;2.45;;;18.10;99.90;;;;;;5067946;28;20017;-64
2023/01/16 13:18:54;;;;;;;5.57;1.40;;;18.10;99.90;;;;;;5067502;28;20016;-65
2023/01/16 13:21:30;;;;;;;4.40;1.48;;;18.10;99.90;;;;;;5061002;28;20023;-64
2023/01/16 13:24:22;;;;;;;5.95;1.52;;;18.00;99.90;;;;;;5062897;28;20036;-64
2023/01/16 13:26:58;;;;;;;11.45;2.00;;;18.00;99.90;;;;;;5070112;28;20031;-64
2023/01/16 13:29:48;;;;;;;6.20;1.50;;;18.00;99.90;;;;;;5070388;28;20017;-65
2023/01/16 13:32:33;;;;;;;5.18;1.40;;;17.90;99.90;;;;;;5069547;28;20036;-64
2023/01/16 13:35:09;;;;;;;8.15;1.77;;;17.80;99.90;;;;;;5069959;28;20028;-64
2023/01/16 13:37:53;;;;;;;5.25;1.50;;;17.80;99.90;;;;;;5069502;28;20016;-63
2023/01/16 13:40:39;;;;;;;10.88;2.03;;;17.70;99.90;;;;;;5069835;28;20379;-63
2023/01/16 13:45:58;;;;;;;6.97;1.90;;;17.90;99.90;;;;;;5070186;28;20035;-65
2023/01/16 13:48:36;;;;;;;12.95;2.60;;;18.00;99.90;;;;;;5070202;28;20099;-64
2023/01/16 13:51:19;;;;;;;8.20;1.60;;;18.00;99.90;;;;;;5069720;28;20032;-64
2023/01/16 13:53:52;;;;;;;3.75;1.45;;;18.00;99.90;;;;;;5068587;28;20673;-64
2023/01/16 13:56:26;;;;;;;5.85;1.58;;;17.90;99.90;;;;;;5068587;28;20432;-64
2023/01/16 13:59:02;;;;;;;8.80;1.90;;;17.80;99.90;;;;;;5069395;28;20041;-64
2023/01/16 14:01:49;;;;;;;4.50;1.58;;;17.80;99.90;;;;;;5069304;28;20039;-64
2023/01/16 14:04:16;;;;;;;5.78;1.92;;;17.80;99.90;;;;;;5049280;28;20040;-64
2023/01/16 14:06:45;;;;;;;4.93;1.33;;;17.70;99.90;;;;;;5049563;28;20028;-64
2023/01/16 14:09:18;;;;;;;3.83;1.40;;;17.60;99.90;;;;;;5066979;28;20024;-64
2023/01/16 14:12:02;;;;;;;8.32;1.70;;;17.60;99.90;;;;;;5069181;28;20024;-64
2023/01/16 14:17:54;;;;;;;4.15;1.42;;;17.50;99.90;;;;;;5063606;28;20044;-64
2023/01/16 14:20:44;;;;;;;9.18;1.90;;;17.40;99.90;;;;;;5049788;28;20033;-64
2023/01/16 14:26:05;;;;;;;9.25;1.88;;;17.40;99.90;;;;;;5063331;28;20117;-64
2023/01/16 14:28:34;;;;;;;11.90;2.45;;;17.50;99.90;;;;;;5067032;28;20131;-64
2023/01/16 14:31:02;;;;;;;6.80;2.20;;;17.60;99.90;;;;;;5066674;28;20063;-64
2023/01/16 14:33:30;;;;;;;9.68;2.50;;;17.60;99.90;;;;;;5064558;28;20494;-64
2023/01/16 14:36:00;;;;;;;13.32;2.55;;;17.70;99.90;;;;;;5069238;28;20091;-64